createdAt,value
2017-08-19T00:02:12.150Z,83.32
2017-08-19T00:04:40.568Z,82.58
2017-08-19T00:07:08.934Z,82.61
2017-08-19T00:09:37.297Z,82.52
2017-08-19T00:12:05.710Z,83.21
2017-08-19T00:14:34.063Z,84.06
2017-08-19T00:17:02.448Z,83.95
2017-08-19T00:19:30.871Z,83.97
2017-08-19T00:22:00.032Z,82.51
2017-08-19T00:24:28.402Z,82.63
2017-08-19T00:26:56.811Z,83.23
2017-08-19T00:29:25.185Z,82.44
2017-08-19T00:31:53.628Z,83.08
2017-08-19T00:34:21.996Z,82.30
2017-08-19T00:36:50.380Z,82.42
2017-08-19T00:39:18.748Z,82.37
2017-08-19T00:41:47.929Z,83.10
2017-08-19T00:44:16.305Z,83.28
2017-08-19T00:46:44.678Z,82.88
2017-08-19T00:49:13.068Z,83.35
2017-08-19T00:51:42.209Z,83.23
2017-08-19T00:54:10.624Z,82.73
2017-08-19T00:56:39.008Z,83.15
2017-08-19T00:59:07.442Z,82.57
2017-08-19T01:01:35.804Z,82.42
2017-08-19T01:04:04.187Z,82.75
2017-08-19T01:06:33.365Z,83.32
2017-08-19T01:09:01.741Z,84.45
2017-08-19T01:11:30.110Z,84.56
2017-08-19T01:13:58.519Z,84.62
2017-08-19T01:16:27.667Z,83.87
2017-08-19T01:18:56.033Z,84.31
2017-08-19T01:21:24.420Z,84.43
2017-08-19T01:23:52.782Z,84.91
2017-08-19T01:26:39.643Z,85.12
2017-08-19T01:29:08.029Z,84.19
2017-08-19T01:31:36.938Z,83.99
2017-08-19T01:34:05.339Z,83.65
2017-08-19T01:36:34.473Z,84.59
2017-08-19T01:39:02.851Z,83.83
2017-08-19T01:41:31.243Z,83.04
2017-08-19T01:43:59.628Z,82.37
2017-08-19T01:46:28.039Z,82.40
2017-08-19T01:48:56.428Z,82.17
2017-08-19T01:51:24.797Z,81.36
2017-08-19T01:53:53.194Z,81.74
2017-08-19T01:56:21.561Z,81.15
2017-08-19T01:58:49.967Z,80.66
2017-08-19T02:01:19.108Z,80.42
2017-08-19T02:03:47.506Z,80.09
2017-08-19T02:06:15.876Z,79.76
2017-08-19T02:08:44.264Z,79.76
2017-08-19T02:11:12.677Z,80.12
2017-08-19T02:13:41.062Z,79.80
2017-08-19T02:16:10.212Z,79.77
2017-08-19T02:18:38.614Z,79.84
2017-08-19T02:21:06.997Z,79.82
2017-08-19T02:23:35.362Z,79.91
2017-08-19T02:26:03.748Z,79.77
2017-08-19T02:28:32.128Z,80.02
2017-08-19T02:31:00.535Z,80.40
2017-08-19T02:33:28.905Z,80.89
2017-08-19T02:35:57.274Z,81.59
2017-08-19T02:38:25.687Z,82.01
2017-08-19T02:40:54.089Z,82.50
2017-08-19T02:43:23.256Z,82.96
2017-08-19T02:45:51.650Z,82.44
2017-08-19T02:48:20.027Z,81.77
2017-08-19T02:50:48.455Z,81.65
2017-08-19T02:53:16.836Z,81.06
2017-08-19T02:55:45.196Z,80.56
2017-08-19T02:58:14.361Z,80.91
2017-08-19T03:00:42.725Z,80.91
2017-08-19T03:03:11.113Z,80.68
2017-08-19T03:05:39.480Z,80.87
2017-08-19T03:08:07.886Z,80.76
2017-08-19T03:10:36.260Z,80.72
2017-08-19T03:13:04.652Z,80.28
2017-08-19T03:15:33.042Z,81.10
2017-08-19T03:18:01.415Z,82.05
2017-08-19T03:20:29.805Z,83.19
2017-08-19T03:22:58.176Z,82.75
2017-08-19T03:25:26.553Z,82.32
2017-08-19T03:27:54.964Z,82.41
2017-08-19T03:30:23.349Z,82.78
2017-08-19T03:32:52.495Z,83.02
2017-08-19T03:35:20.903Z,82.34
2017-08-19T03:37:49.290Z,82.17
2017-08-19T03:40:17.690Z,81.54
2017-08-19T03:42:46.871Z,81.88
2017-08-19T03:45:15.243Z,82.08
2017-08-19T03:47:43.645Z,83.06
2017-08-19T03:50:12.794Z,83.23
2017-08-19T03:52:41.218Z,82.83
2017-08-19T03:55:10.372Z,82.41
2017-08-19T03:57:38.743Z,82.18
2017-08-19T04:00:07.148Z,82.15
2017-08-19T04:02:35.578Z,82.03
2017-08-19T04:05:03.985Z,81.98
2017-08-19T04:07:32.350Z,81.82
2017-08-19T04:10:00.742Z,81.74
2017-08-19T04:12:29.121Z,81.64
2017-08-19T04:14:57.489Z,81.47
2017-08-19T04:17:25.887Z,81.64
2017-08-19T04:19:54.258Z,81.50
2017-08-19T04:22:22.668Z,81.38
2017-08-19T04:24:51.037Z,81.18
2017-08-19T04:27:19.404Z,81.44
2017-08-19T04:29:47.814Z,81.45
2017-08-19T04:32:16.199Z,81.32
2017-08-19T04:34:44.597Z,81.42
2017-08-19T04:37:12.987Z,81.57
2017-08-19T04:39:41.361Z,81.80
2017-08-19T04:42:09.753Z,82.12
2017-08-19T04:44:38.143Z,82.14
2017-08-19T04:47:06.533Z,82.28
2017-08-19T04:49:35.678Z,82.65
2017-08-19T04:52:04.077Z,82.37
2017-08-19T04:54:32.441Z,83.14
2017-08-19T04:57:00.840Z,82.64
2017-08-19T04:59:29.219Z,82.65
2017-08-19T05:01:57.606Z,82.55
2017-08-19T05:04:25.997Z,82.37
2017-08-19T05:06:54.369Z,82.08
2017-08-19T05:09:22.756Z,81.66
2017-08-19T05:11:51.157Z,81.64
2017-08-19T05:14:20.321Z,81.43
2017-08-19T05:16:48.703Z,81.20
2017-08-19T05:19:17.071Z,81.14
2017-08-19T05:21:45.475Z,80.97
2017-08-19T05:24:13.866Z,80.68
2017-08-19T05:26:42.276Z,80.81
2017-08-19T05:29:10.649Z,80.55
2017-08-19T05:31:39.825Z,79.96
2017-08-19T05:34:08.193Z,80.48
2017-08-19T05:36:36.596Z,80.62
2017-08-19T05:39:05.728Z,81.14
2017-08-19T05:41:34.131Z,81.41
2017-08-19T05:44:02.527Z,82.18
2017-08-19T05:46:30.917Z,82.46
2017-08-19T05:48:59.281Z,83.31
2017-08-19T05:51:27.701Z,83.10
2017-08-19T05:53:56.869Z,82.90
2017-08-19T05:56:25.246Z,82.40
2017-08-19T05:58:53.653Z,81.38
2017-08-19T06:01:22.019Z,81.72
2017-08-19T06:03:50.432Z,80.28
2017-08-19T06:06:18.800Z,80.48
2017-08-19T06:08:47.183Z,81.16
2017-08-19T06:11:15.612Z,80.67
2017-08-19T06:13:43.986Z,79.97
2017-08-19T06:16:12.384Z,80.34
2017-08-19T06:18:40.795Z,78.68
2017-08-19T06:21:09.266Z,78.42
2017-08-19T06:23:37.839Z,79.24
2017-08-19T06:26:06.209Z,76.92
2017-08-19T06:28:34.614Z,78.00
2017-08-19T06:31:03.020Z,77.17
2017-08-19T06:33:31.398Z,77.27
2017-08-19T06:35:59.812Z,76.35
2017-08-19T06:38:28.194Z,77.39
2017-08-19T06:40:56.572Z,77.57
2017-08-19T06:43:24.968Z,75.03
2017-08-19T06:45:53.349Z,76.10
2017-08-19T06:48:21.761Z,74.26
2017-08-19T06:50:50.148Z,75.35
2017-08-19T06:53:18.549Z,74.55
2017-08-19T06:55:47.047Z,74.15
2017-08-19T06:58:16.178Z,73.04
2017-08-19T07:00:44.737Z,73.42
2017-08-19T07:03:13.181Z,74.10
2017-08-19T07:05:41.579Z,72.63
2017-08-19T07:08:10.277Z,72.21
2017-08-19T07:10:39.430Z,70.71
2017-08-19T07:13:07.838Z,71.09
2017-08-19T07:15:36.224Z,71.36
2017-08-19T07:18:04.636Z,71.50
2017-08-19T07:20:33.030Z,71.42
2017-08-19T07:23:01.439Z,71.24
2017-08-19T07:25:29.825Z,71.29
2017-08-19T07:27:58.221Z,71.35
2017-08-19T07:30:26.604Z,71.08
2017-08-19T07:32:55.070Z,71.77
2017-08-19T07:35:23.455Z,72.02
2017-08-19T07:37:51.868Z,70.66
2017-08-19T07:40:21.023Z,70.88
2017-08-19T07:42:49.403Z,71.91
2017-08-19T07:45:17.827Z,71.01
2017-08-19T07:47:46.202Z,71.75
2017-08-19T07:50:14.598Z,70.19
2017-08-19T07:52:43.738Z,69.45
2017-08-19T07:55:12.132Z,70.43
2017-08-19T07:57:40.497Z,71.50
2017-08-19T08:00:08.889Z,71.37
2017-08-19T08:02:37.319Z,69.87
2017-08-19T08:05:05.738Z,69.91
2017-08-19T08:07:34.127Z,69.79
2017-08-19T08:10:02.596Z,69.41
2017-08-19T08:12:30.991Z,68.25
2017-08-19T08:14:59.367Z,69.89
2017-08-19T08:17:27.777Z,69.61
2017-08-19T08:19:56.159Z,69.60
2017-08-19T08:22:24.567Z,67.17
2017-08-19T08:24:53.715Z,66.00
2017-08-19T08:27:22.081Z,66.95
2017-08-19T08:29:50.487Z,67.66
2017-08-19T08:32:18.878Z,66.18
2017-08-19T08:34:47.316Z,65.13
2017-08-19T08:37:15.715Z,65.96
2017-08-19T08:39:44.107Z,65.69
2017-08-19T08:42:12.520Z,65.82
2017-08-19T08:44:40.893Z,65.34
2017-08-19T08:47:09.307Z,64.65
2017-08-19T08:49:37.693Z,64.89
2017-08-19T08:52:06.859Z,65.39
2017-08-19T08:54:35.245Z,67.05
2017-08-19T08:57:03.645Z,66.21
2017-08-19T08:59:32.839Z,65.33
2017-08-19T09:02:02.070Z,65.20
2017-08-19T09:04:30.452Z,63.77
2017-08-19T09:06:58.855Z,63.93
2017-08-19T09:09:27.245Z,63.20
2017-08-19T09:11:55.628Z,62.47
2017-08-19T09:14:24.039Z,63.65
2017-08-19T09:16:52.413Z,63.55
2017-08-19T09:19:20.817Z,63.27
2017-08-19T09:21:49.195Z,62.13
2017-08-19T09:24:18.367Z,63.28
2017-08-19T09:26:46.740Z,61.29
2017-08-19T09:29:15.131Z,61.64
2017-08-19T09:31:43.522Z,61.91
2017-08-19T09:34:11.906Z,59.44
2017-08-19T09:36:40.308Z,59.75
2017-08-19T09:39:08.719Z,59.21
2017-08-19T09:41:37.087Z,60.13
2017-08-19T09:44:05.494Z,60.99
2017-08-19T09:46:33.880Z,60.34
2017-08-19T09:49:02.276Z,60.17
2017-08-19T09:51:30.678Z,59.48
2017-08-19T09:53:59.045Z,58.56
2017-08-19T09:56:27.460Z,59.40
2017-08-19T09:58:55.842Z,58.93
2017-08-19T10:01:24.216Z,59.45
2017-08-19T10:03:52.617Z,59.61
2017-08-19T10:06:20.985Z,58.57
2017-08-19T10:11:56.881Z,60.50
2017-08-19T10:14:25.264Z,60.72
2017-08-19T10:16:53.670Z,61.50
2017-08-19T10:19:22.068Z,59.61
2017-08-19T10:21:50.480Z,59.33
2017-08-19T10:24:19.648Z,58.07
2017-08-19T10:26:48.033Z,57.72
2017-08-19T10:29:16.415Z,57.61
2017-08-19T10:31:44.826Z,57.75
2017-08-19T10:34:13.991Z,58.27
2017-08-19T10:36:42.409Z,57.66
2017-08-19T10:39:11.581Z,57.44
2017-08-19T10:41:40.003Z,57.05
2017-08-19T10:44:08.373Z,58.21
2017-08-19T10:46:37.521Z,58.69
2017-08-19T10:49:05.916Z,58.70
2017-08-19T10:51:34.299Z,58.58
2017-08-19T10:54:02.692Z,56.99
2017-08-19T10:56:31.065Z,56.68
2017-08-19T10:58:59.482Z,58.83
2017-08-19T11:01:28.608Z,57.94
2017-08-19T11:03:56.983Z,57.30
2017-08-19T11:06:25.377Z,55.71
2017-08-19T11:08:53.751Z,55.82
2017-08-19T11:11:22.129Z,55.59
2017-08-19T11:13:50.535Z,53.78
2017-08-19T11:16:18.927Z,53.64
2017-08-19T11:18:47.306Z,53.96
2017-08-19T11:21:15.706Z,54.15
2017-08-19T11:23:44.086Z,54.32
2017-08-19T11:26:12.488Z,54.57
2017-08-19T11:28:40.861Z,54.42
2017-08-19T11:31:10.008Z,54.75
2017-08-19T11:33:38.424Z,55.45
2017-08-19T11:36:06.811Z,56.07
2017-08-19T11:38:35.282Z,56.83
2017-08-19T11:41:03.695Z,58.24
2017-08-19T11:43:32.062Z,58.30
2017-08-19T11:46:00.458Z,57.33
2017-08-19T11:48:28.885Z,59.20
2017-08-19T11:50:57.246Z,58.41
2017-08-19T11:53:25.645Z,58.64
2017-08-19T11:55:54.337Z,59.05
2017-08-19T11:58:22.737Z,59.18
2017-08-19T12:00:51.149Z,61.77
2017-08-19T12:03:19.519Z,62.92
2017-08-19T12:05:47.945Z,62.89
2017-08-19T12:08:16.344Z,60.18
2017-08-19T12:10:44.753Z,61.33
2017-08-19T12:13:13.166Z,61.31
2017-08-19T12:15:41.638Z,59.51
2017-08-19T12:18:10.049Z,56.60
2017-08-19T12:20:38.432Z,56.17
2017-08-19T12:23:06.847Z,54.58
2017-08-19T12:25:35.221Z,54.49
2017-08-19T12:28:03.623Z,53.40
2017-08-19T12:30:32.197Z,55.50
2017-08-19T12:33:00.579Z,55.83
2017-08-19T12:35:28.974Z,55.13
2017-08-19T12:37:57.387Z,54.73
2017-08-19T12:40:26.555Z,56.28
2017-08-19T12:42:54.926Z,57.75
2017-08-19T12:45:23.333Z,62.61
2017-08-19T12:47:51.719Z,65.47
2017-08-19T12:50:20.082Z,66.08
2017-08-19T12:52:48.488Z,61.87
2017-08-19T12:55:16.875Z,62.37
2017-08-19T12:57:45.273Z,60.22
2017-08-19T13:00:13.648Z,59.26
2017-08-19T13:02:42.033Z,57.34
2017-08-19T13:05:10.401Z,55.18
2017-08-19T13:07:38.804Z,56.03
2017-08-19T13:10:07.203Z,54.15
2017-08-19T13:12:35.609Z,54.31
2017-08-19T13:15:03.995Z,56.61
2017-08-19T13:17:32.387Z,56.06
2017-08-19T13:20:00.804Z,56.18
2017-08-19T13:22:29.178Z,57.67
2017-08-19T13:24:57.558Z,58.45
2017-08-19T13:27:25.966Z,56.69
2017-08-19T13:29:55.006Z,55.40
2017-08-19T13:32:23.390Z,56.50
2017-08-19T13:34:52.550Z,55.48
2017-08-19T13:37:20.917Z,53.54
2017-08-19T13:39:49.284Z,52.42
2017-08-19T13:42:17.678Z,49.76
2017-08-19T13:44:46.066Z,49.35
2017-08-19T13:47:14.469Z,51.31
2017-08-19T13:49:42.874Z,47.30
2017-08-19T13:52:11.255Z,47.54
2017-08-19T13:54:40.401Z,47.60
2017-08-19T13:57:08.816Z,48.29
2017-08-19T13:59:37.185Z,50.40
2017-08-19T14:02:05.562Z,54.28
2017-08-19T14:04:33.975Z,56.11
2017-08-19T14:07:02.374Z,56.17
2017-08-19T14:09:31.519Z,56.08
2017-08-19T14:11:59.927Z,58.04
2017-08-19T14:14:28.292Z,58.85
2017-08-19T14:16:56.685Z,57.55
2017-08-19T14:19:25.079Z,56.78
2017-08-19T14:21:53.460Z,55.74
2017-08-19T14:24:21.838Z,53.23
2017-08-19T14:26:50.237Z,48.47
2017-08-19T14:29:19.377Z,47.27
2017-08-19T14:31:47.741Z,48.45
2017-08-19T14:34:16.138Z,49.14
2017-08-19T14:36:44.499Z,49.48
2017-08-19T14:39:12.879Z,53.00
2017-08-19T14:41:41.273Z,55.09
2017-08-19T14:44:09.659Z,55.84
2017-08-19T14:46:38.022Z,55.39
2017-08-19T14:49:06.427Z,56.24
2017-08-19T14:51:34.789Z,56.55
2017-08-19T14:54:03.153Z,55.16
2017-08-19T14:56:31.551Z,50.30
2017-08-19T14:58:59.934Z,46.60
2017-08-19T15:01:28.315Z,47.45
2017-08-19T15:03:56.736Z,49.70
2017-08-19T15:06:25.131Z,46.75
2017-08-19T15:08:53.517Z,46.30
2017-08-19T15:11:21.913Z,49.04
2017-08-19T15:13:51.046Z,47.99
2017-08-19T15:16:19.429Z,46.39
2017-08-19T15:18:47.826Z,47.65
2017-08-19T15:21:16.947Z,46.24
2017-08-19T15:23:45.313Z,43.24
2017-08-19T15:26:13.703Z,43.09
2017-08-19T15:28:42.092Z,43.65
2017-08-19T15:31:10.472Z,41.72
2017-08-19T15:33:38.879Z,43.58
2017-08-19T15:36:08.035Z,42.29
2017-08-19T15:38:36.419Z,42.44
2017-08-19T15:41:04.829Z,42.16
2017-08-19T15:43:33.193Z,41.53
2017-08-19T15:46:01.569Z,41.78
2017-08-19T15:48:29.989Z,41.91
2017-08-19T15:50:58.353Z,39.13
2017-08-19T15:53:26.783Z,41.42
2017-08-19T15:55:55.195Z,40.19
2017-08-19T15:58:23.571Z,41.83
2017-08-19T16:00:51.959Z,41.86
2017-08-19T16:03:20.367Z,41.09
2017-08-19T16:05:49.494Z,40.90
2017-08-19T16:08:17.894Z,40.68
2017-08-19T16:10:46.283Z,38.52
2017-08-19T16:13:14.650Z,37.30
2017-08-19T16:15:43.066Z,36.72
2017-08-19T16:18:11.521Z,38.57
2017-08-19T16:20:39.900Z,37.21
2017-08-19T16:23:08.303Z,37.96
2017-08-19T16:25:36.703Z,36.15
2017-08-19T16:28:05.076Z,37.02
2017-08-19T16:30:34.265Z,38.01
2017-08-19T16:33:02.630Z,36.33
2017-08-19T16:35:31.013Z,34.97
2017-08-19T16:37:59.416Z,35.20
2017-08-19T16:40:27.792Z,36.05
2017-08-19T16:42:56.172Z,39.16
2017-08-19T16:45:24.569Z,42.67
2017-08-19T16:47:52.933Z,45.36
2017-08-19T16:50:21.325Z,47.60
2017-08-19T16:52:49.718Z,50.22
2017-08-19T16:55:18.085Z,51.62
2017-08-19T16:57:46.463Z,52.89
2017-08-19T17:00:14.887Z,54.73
2017-08-19T17:02:43.257Z,56.16
2017-08-19T17:05:11.630Z,57.50
2017-08-19T17:07:40.812Z,56.47
2017-08-19T17:10:09.190Z,57.30
2017-08-19T17:12:37.552Z,57.15
2017-08-19T17:15:05.949Z,57.87
2017-08-19T17:17:34.327Z,58.28
2017-08-19T17:20:02.713Z,59.01
2017-08-19T17:22:31.126Z,59.34
2017-08-19T17:25:00.283Z,59.38
2017-08-19T17:27:28.680Z,60.71
2017-08-19T17:29:57.105Z,62.00
2017-08-19T17:32:25.496Z,64.28
2017-08-19T17:34:53.879Z,66.17
2017-08-19T17:37:22.270Z,67.99
2017-08-19T17:39:50.654Z,70.63
2017-08-19T17:42:19.039Z,74.23
2017-08-19T17:44:47.447Z,73.85
2017-08-19T17:47:15.818Z,74.84
2017-08-19T17:49:44.180Z,74.96
2017-08-19T17:52:12.588Z,75.29
2017-08-19T17:54:40.964Z,76.07
2017-08-19T17:57:09.357Z,74.21
2017-08-19T17:59:37.754Z,73.56
2017-08-19T18:02:06.887Z,74.26
2017-08-19T18:04:35.262Z,76.18
2017-08-19T18:07:03.654Z,76.63
2017-08-19T18:09:32.051Z,77.78
2017-08-19T18:12:00.445Z,78.16
2017-08-19T18:14:28.820Z,79.09
2017-08-19T18:16:57.233Z,77.21
2017-08-19T18:19:26.365Z,76.94
2017-08-19T18:21:54.761Z,79.04
2017-08-19T18:24:23.140Z,77.36
2017-08-19T18:26:51.532Z,77.83
2017-08-19T18:29:19.945Z,78.42
2017-08-19T18:31:48.319Z,78.14
2017-08-19T18:34:16.686Z,78.30
2017-08-19T18:36:45.089Z,79.15
2017-08-19T18:39:13.475Z,79.40
2017-08-19T18:41:42.625Z,79.46
2017-08-19T18:44:11.018Z,79.76
2017-08-19T18:46:39.395Z,79.81
2017-08-19T18:49:07.762Z,80.53
2017-08-19T18:51:36.149Z,80.01
2017-08-19T18:54:04.531Z,80.20
2017-08-19T18:56:32.956Z,80.05
2017-08-19T18:59:01.350Z,80.00
2017-08-19T19:01:30.499Z,79.91
2017-08-19T19:03:58.948Z,80.05
2017-08-19T19:06:27.324Z,79.92
2017-08-19T19:08:55.693Z,78.95
2017-08-19T19:11:24.094Z,79.96
2017-08-19T19:13:52.476Z,81.30
2017-08-19T19:16:20.845Z,81.21
2017-08-19T19:18:49.256Z,81.51
2017-08-19T19:21:17.644Z,82.18
2017-08-19T19:23:46.009Z,82.45
2017-08-19T19:26:14.408Z,82.48
2017-08-19T19:28:42.786Z,82.67
2017-08-19T19:31:11.157Z,81.84
2017-08-19T19:33:39.580Z,82.25
2017-08-19T19:36:07.954Z,81.58
2017-08-19T19:38:36.314Z,82.19
2017-08-19T19:41:04.716Z,81.71
2017-08-19T19:43:33.089Z,81.07
2017-08-19T19:46:01.455Z,80.33
2017-08-19T19:48:29.871Z,81.79
2017-08-19T19:50:58.246Z,81.56
2017-08-19T19:53:26.635Z,81.47
2017-08-19T19:55:55.029Z,81.17
2017-08-19T19:58:24.159Z,81.37
2017-08-19T20:00:52.530Z,80.90
2017-08-19T20:03:20.931Z,80.50
2017-08-19T20:05:49.293Z,80.92
2017-08-19T20:08:17.662Z,81.21
2017-08-19T20:10:46.078Z,80.98
2017-08-19T20:13:14.446Z,81.55
2017-08-19T20:15:42.828Z,82.21
2017-08-19T20:18:11.247Z,82.56
2017-08-19T20:20:39.623Z,81.70
2017-08-19T20:23:08.012Z,82.54
2017-08-19T20:25:36.419Z,81.66
2017-08-19T20:28:05.570Z,82.15
2017-08-19T20:30:33.931Z,82.60
2017-08-19T20:33:02.338Z,82.46
2017-08-19T20:35:30.785Z,81.82
2017-08-19T20:37:59.157Z,81.58
2017-08-19T20:40:27.562Z,81.51
2017-08-19T20:42:55.933Z,82.39
2017-08-19T20:45:24.298Z,82.38
2017-08-19T20:47:52.705Z,82.22
2017-08-19T20:50:21.080Z,82.56
2017-08-19T20:52:49.448Z,82.54
2017-08-19T20:55:17.849Z,82.22
2017-08-19T20:57:46.230Z,82.44
2017-08-19T21:00:14.605Z,82.76
2017-08-19T21:02:43.003Z,83.03
2017-08-19T21:05:11.365Z,83.09
2017-08-19T21:07:39.747Z,83.39
2017-08-19T21:10:08.149Z,84.06
2017-08-19T21:12:36.536Z,83.36
2017-08-19T21:15:04.918Z,82.97
2017-08-19T21:17:33.320Z,83.39
2017-08-19T21:20:01.689Z,83.26
2017-08-19T21:22:30.051Z,82.34
2017-08-19T21:24:58.453Z,82.17
2017-08-19T21:27:26.818Z,81.87
2017-08-19T21:29:55.193Z,81.85
2017-08-19T21:32:23.592Z,81.72
2017-08-19T21:34:51.971Z,81.55
2017-08-19T21:37:20.367Z,80.70
2017-08-19T21:39:48.776Z,80.99
2017-08-19T21:42:17.190Z,80.98
2017-08-19T21:44:45.569Z,80.49
2017-08-19T21:47:13.969Z,80.53
2017-08-19T21:49:42.364Z,80.53
2017-08-19T21:52:10.771Z,81.79
2017-08-19T21:54:39.903Z,81.00
2017-08-19T21:57:08.330Z,80.37
2017-08-19T21:59:37.003Z,80.29
2017-08-19T22:02:05.567Z,80.00
2017-08-19T22:04:34.155Z,80.41
2017-08-19T22:07:02.596Z,80.23
2017-08-19T22:09:31.301Z,80.50
2017-08-19T22:11:59.683Z,81.24
2017-08-19T22:14:28.086Z,81.42
2017-08-19T22:16:56.473Z,81.64
2017-08-19T22:19:24.884Z,81.48
2017-08-19T22:21:53.287Z,82.02
2017-08-19T22:24:21.660Z,81.64
2017-08-19T22:26:50.040Z,81.84
2017-08-19T22:29:18.445Z,81.46
2017-08-19T22:31:47.572Z,81.04
2017-08-19T22:34:15.937Z,80.87
2017-08-19T22:36:44.329Z,81.11
2017-08-19T22:39:12.704Z,81.39
2017-08-19T22:41:41.072Z,81.11
2017-08-19T22:44:09.471Z,80.80
2017-08-19T22:46:37.837Z,81.22
2017-08-19T22:49:06.207Z,80.93
2017-08-19T22:51:35.361Z,81.00
2017-08-19T22:54:03.724Z,81.38
2017-08-19T22:56:32.103Z,81.50
2017-08-19T22:59:00.493Z,81.50
2017-08-19T23:01:28.865Z,81.15
2017-08-19T23:03:57.240Z,80.93
2017-08-19T23:06:25.643Z,81.06
2017-08-19T23:08:54.020Z,80.96
2017-08-19T23:11:22.413Z,81.00
2017-08-19T23:13:50.801Z,80.81
2017-08-19T23:16:19.177Z,81.07
2017-08-19T23:18:47.584Z,80.97
2017-08-19T23:21:15.973Z,81.63
2017-08-19T23:23:45.109Z,82.59
2017-08-19T23:26:13.474Z,84.25
2017-08-19T23:28:41.882Z,85.57
2017-08-19T23:31:10.253Z,85.67
2017-08-19T23:33:38.641Z,85.61
2017-08-19T23:36:07.021Z,85.38
2017-08-19T23:38:35.394Z,85.42
2017-08-19T23:41:03.790Z,85.28
2017-08-19T23:43:32.160Z,85.18
2017-08-19T23:46:00.530Z,84.88
2017-08-19T23:48:28.928Z,85.22
2017-08-19T23:50:57.313Z,84.98
2017-08-19T23:53:25.719Z,84.64
2017-08-19T23:55:54.087Z,84.72
2017-08-19T23:58:22.450Z,84.26
